sensor_id;sensor_type;location;lat;lon;timestamp;temperature;humidity
57664;DHT22;43493;53.098;6.064;2022-07-06T00:01:51;16.50;99.90
57664;DHT22;43493;53.098;6.064;2022-07-06T00:04:18;16.50;99.90
57664;DHT22;43493;53.098;6.064;2022-07-06T00:06:44;16.60;99.90
57664;DHT22;43493;53.098;6.064;2022-07-06T00:09:09;16.50;99.90
57664;DHT22;43493;53.098;6.064;2022-07-06T00:11:35;16.50;99.90
57664;DHT22;43493;53.098;6.064;2022-07-06T00:14:01;16.50;99.90
57664;DHT22;43493;53.098;6.064;2022-07-06T00:16:27;16.50;99.90
57664;DHT22;43493;53.098;6.064;2022-07-06T00:18:53;16.50;99.90
57664;DHT22;43493;53.098;6.064;2022-07-06T00:21:19;16.50;99.90
57664;DHT22;43493;53.098;6.064;2022-07-06T00:23:45;16.50;99.90
57664;DHT22;43493;53.098;6.064;2022-07-06T00:26:10;16.50;99.90
57664;DHT22;43493;53.098;6.064;2022-07-06T00:28:36;16.50;99.90
57664;DHT22;43493;53.098;6.064;2022-07-06T00:31:02;16.50;99.90
57664;DHT22;43493;53.098;6.064;2022-07-06T00:33:28;16.40;99.90
57664;DHT22;43493;53.098;6.064;2022-07-06T00:35:53;16.40;99.90
57664;DHT22;43493;53.098;6.064;2022-07-06T00:38:20;16.40;99.90
57664;DHT22;43493;53.098;6.064;2022-07-06T00:40:46;16.40;99.90
57664;DHT22;43493;53.098;6.064;2022-07-06T00:43:12;16.40;99.90
57664;DHT22;43493;53.098;6.064;2022-07-06T00:45:37;16.40;99.90
57664;DHT22;43493;53.098;6.064;2022-07-06T00:48:03;16.50;99.90
57664;DHT22;43493;53.098;6.064;2022-07-06T00:50:29;16.40;99.90
57664;DHT22;43493;53.098;6.064;2022-07-06T00:52:59;16.40;99.90
57664;DHT22;43493;53.098;6.064;2022-07-06T00:55:28;16.40;99.90
57664;DHT22;43493;53.098;6.064;2022-07-06T00:57:54;16.40;99.90
57664;DHT22;43493;53.098;6.064;2022-07-06T01:00:23;16.40;99.90
57664;DHT22;43493;53.098;6.064;2022-07-06T01:02:50;16.40;99.90
57664;DHT22;43493;53.098;6.064;2022-07-06T01:05:16;16.30;99.90
57664;DHT22;43493;53.098;6.064;2022-07-06T01:07:44;16.30;99.90
57664;DHT22;43493;53.098;6.064;2022-07-06T01:10:12;16.30;99.90
57664;DHT22;43493;53.098;6.064;2022-07-06T01:12:40;16.30;99.90
57664;DHT22;43493;53.098;6.064;2022-07-06T01:15:12;16.30;99.90
57664;DHT22;43493;53.098;6.064;2022-07-06T01:17:39;16.30;99.90
57664;DHT22;43493;53.098;6.064;2022-07-06T01:20:25;16.30;99.90
57664;DHT22;43493;53.098;6.064;2022-07-06T01:22:52;16.30;99.90
57664;DHT22;43493;53.098;6.064;2022-07-06T01:25:20;16.30;99.90
57664;DHT22;43493;53.098;6.064;2022-07-06T01:27:46;16.30;99.90
57664;DHT22;43493;53.098;6.064;2022-07-06T01:30:17;16.20;99.90
57664;DHT22;43493;53.098;6.064;2022-07-06T01:32:43;16.30;99.90
57664;DHT22;43493;53.098;6.064;2022-07-06T01:35:11;16.20;99.90
57664;DHT22;43493;53.098;6.064;2022-07-06T01:37:37;16.30;99.90
57664;DHT22;43493;53.098;6.064;2022-07-06T01:40:05;16.30;99.90
57664;DHT22;43493;53.098;6.064;2022-07-06T01:42:31;16.30;99.90
57664;DHT22;43493;53.098;6.064;2022-07-06T01:44:57;16.20;99.90
57664;DHT22;43493;53.098;6.064;2022-07-06T01:47:23;16.20;99.90
57664;DHT22;43493;53.098;6.064;2022-07-06T01:49:49;16.30;99.90
57664;DHT22;43493;53.098;6.064;2022-07-06T01:52:15;16.30;99.90
57664;DHT22;43493;53.098;6.064;2022-07-06T01:54:41;16.30;99.90
57664;DHT22;43493;53.098;6.064;2022-07-06T01:57:06;16.30;99.90
57664;DHT22;43493;53.098;6.064;2022-07-06T01:59:32;16.30;99.90
57664;DHT22;43493;53.098;6.064;2022-07-06T02:01:58;16.30;99.90
57664;DHT22;43493;53.098;6.064;2022-07-06T02:04:23;16.30;99.90
57664;DHT22;43493;53.098;6.064;2022-07-06T02:06:49;16.30;99.90
57664;DHT22;43493;53.098;6.064;2022-07-06T02:09:15;16.20;99.90
57664;DHT22;43493;53.098;6.064;2022-07-06T02:11:42;16.20;99.90
57664;DHT22;43493;53.098;6.064;2022-07-06T02:14:07;16.20;99.90
57664;DHT22;43493;53.098;6.064;2022-07-06T02:16:33;16.20;99.90
57664;DHT22;43493;53.098;6.064;2022-07-06T02:18:59;16.20;99.90
57664;DHT22;43493;53.098;6.064;2022-07-06T02:21:24;16.20;99.90
57664;DHT22;43493;53.098;6.064;2022-07-06T02:23:50;16.10;99.90
57664;DHT22;43493;53.098;6.064;2022-07-06T02:26:16;16.10;99.90
57664;DHT22;43493;53.098;6.064;2022-07-06T02:28:41;16.10;99.90
57664;DHT22;43493;53.098;6.064;2022-07-06T02:31:07;16.10;99.90
57664;DHT22;43493;53.098;6.064;2022-07-06T02:33:33;16.10;99.90
57664;DHT22;43493;53.098;6.064;2022-07-06T02:35:58;16.00;99.90
57664;DHT22;43493;53.098;6.064;2022-07-06T02:38:24;16.00;99.90
57664;DHT22;43493;53.098;6.064;2022-07-06T02:40:50;16.00;99.90
57664;DHT22;43493;53.098;6.064;2022-07-06T02:43:16;16.00;99.90
57664;DHT22;43493;53.098;6.064;2022-07-06T02:45:41;16.00;99.90
57664;DHT22;43493;53.098;6.064;2022-07-06T02:48:07;16.00;99.90
57664;DHT22;43493;53.098;6.064;2022-07-06T02:50:33;15.90;99.90
57664;DHT22;43493;53.098;6.064;2022-07-06T02:52:58;15.90;99.90
57664;DHT22;43493;53.098;6.064;2022-07-06T02:55:24;16.00;99.90
57664;DHT22;43493;53.098;6.064;2022-07-06T02:57:50;16.00;99.90
57664;DHT22;43493;53.098;6.064;2022-07-06T03:00:16;15.90;99.90
57664;DHT22;43493;53.098;6.064;2022-07-06T03:02:42;16.00;99.90
57664;DHT22;43493;53.098;6.064;2022-07-06T03:05:08;15.90;99.90
57664;DHT22;43493;53.098;6.064;2022-07-06T03:07:34;15.90;99.90
57664;DHT22;43493;53.098;6.064;2022-07-06T03:09:59;15.90;99.90
57664;DHT22;43493;53.098;6.064;2022-07-06T03:12:25;15.80;99.90
57664;DHT22;43493;53.098;6.064;2022-07-06T03:14:51;15.80;99.90
57664;DHT22;43493;53.098;6.064;2022-07-06T03:17:17;15.70;99.90
57664;DHT22;43493;53.098;6.064;2022-07-06T03:19:42;15.70;99.90
57664;DHT22;43493;53.098;6.064;2022-07-06T03:22:08;15.70;99.90
57664;DHT22;43493;53.098;6.064;2022-07-06T03:24:34;15.60;99.90
57664;DHT22;43493;53.098;6.064;2022-07-06T03:26:59;15.60;99.90
57664;DHT22;43493;53.098;6.064;2022-07-06T03:29:25;15.50;99.90
57664;DHT22;43493;53.098;6.064;2022-07-06T03:31:50;15.50;99.90
57664;DHT22;43493;53.098;6.064;2022-07-06T03:34:16;15.40;99.90
57664;DHT22;43493;53.098;6.064;2022-07-06T03:36:42;15.40;99.90
57664;DHT22;43493;53.098;6.064;2022-07-06T03:39:07;15.30;99.90
57664;DHT22;43493;53.098;6.064;2022-07-06T03:41:33;15.30;99.90
57664;DHT22;43493;53.098;6.064;2022-07-06T03:43:59;15.30;99.90
57664;DHT22;43493;53.098;6.064;2022-07-06T03:46:25;15.20;99.90
57664;DHT22;43493;53.098;6.064;2022-07-06T03:48:51;15.20;99.90
57664;DHT22;43493;53.098;6.064;2022-07-06T03:51:17;15.20;99.90
57664;DHT22;43493;53.098;6.064;2022-07-06T03:53:43;15.20;99.90
57664;DHT22;43493;53.098;6.064;2022-07-06T03:56:09;15.20;99.90
57664;DHT22;43493;53.098;6.064;2022-07-06T03:58:53;15.20;99.90
57664;DHT22;43493;53.098;6.064;2022-07-06T04:01:19;15.10;99.90
57664;DHT22;43493;53.098;6.064;2022-07-06T04:03:45;15.10;99.90
57664;DHT22;43493;53.098;6.064;2022-07-06T04:06:11;15.10;99.90
57664;DHT22;43493;53.098;6.064;2022-07-06T04:08:37;15.10;99.90
57664;DHT22;43493;53.098;6.064;2022-07-06T04:11:03;15.00;99.90
57664;DHT22;43493;53.098;6.064;2022-07-06T04:13:28;15.00;99.90
57664;DHT22;43493;53.098;6.064;2022-07-06T04:15:54;15.00;99.90
57664;DHT22;43493;53.098;6.064;2022-07-06T04:18:20;15.00;99.90
57664;DHT22;43493;53.098;6.064;2022-07-06T04:20:46;15.00;99.90
57664;DHT22;43493;53.098;6.064;2022-07-06T04:23:11;15.00;99.90
57664;DHT22;43493;53.098;6.064;2022-07-06T04:25:37;15.00;99.90
57664;DHT22;43493;53.098;6.064;2022-07-06T04:28:03;15.00;99.90
57664;DHT22;43493;53.098;6.064;2022-07-06T04:30:29;15.00;99.90
57664;DHT22;43493;53.098;6.064;2022-07-06T04:32:55;15.10;99.90
57664;DHT22;43493;53.098;6.064;2022-07-06T04:35:23;15.10;99.90
57664;DHT22;43493;53.098;6.064;2022-07-06T04:37:49;15.20;99.90
57664;DHT22;43493;53.098;6.064;2022-07-06T04:40:15;15.30;99.90
57664;DHT22;43493;53.098;6.064;2022-07-06T04:42:41;15.30;99.90
57664;DHT22;43493;53.098;6.064;2022-07-06T04:45:07;15.30;99.90
57664;DHT22;43493;53.098;6.064;2022-07-06T04:47:34;15.40;99.90
57664;DHT22;43493;53.098;6.064;2022-07-06T04:50:00;15.40;99.90
57664;DHT22;43493;53.098;6.064;2022-07-06T04:52:26;15.40;99.90
57664;DHT22;43493;53.098;6.064;2022-07-06T04:54:54;15.40;99.90
57664;DHT22;43493;53.098;6.064;2022-07-06T04:57:19;15.40;99.90
57664;DHT22;43493;53.098;6.064;2022-07-06T04:59:45;15.40;99.90
57664;DHT22;43493;53.098;6.064;2022-07-06T05:02:11;15.40;99.90
57664;DHT22;43493;53.098;6.064;2022-07-06T05:04:36;15.40;99.90
57664;DHT22;43493;53.098;6.064;2022-07-06T05:07:02;15.40;99.90
57664;DHT22;43493;53.098;6.064;2022-07-06T05:09:28;15.40;99.90
57664;DHT22;43493;53.098;6.064;2022-07-06T05:11:54;15.50;99.90
57664;DHT22;43493;53.098;6.064;2022-07-06T05:14:20;15.50;99.90
57664;DHT22;43493;53.098;6.064;2022-07-06T05:16:45;15.50;99.90
57664;DHT22;43493;53.098;6.064;2022-07-06T05:19:11;15.50;99.90
57664;DHT22;43493;53.098;6.064;2022-07-06T05:21:37;15.50;99.90
57664;DHT22;43493;53.098;6.064;2022-07-06T05:24:03;15.50;99.90
57664;DHT22;43493;53.098;6.064;2022-07-06T05:26:29;15.50;99.90
57664;DHT22;43493;53.098;6.064;2022-07-06T05:28:55;15.50;99.90
57664;DHT22;43493;53.098;6.064;2022-07-06T05:31:21;15.50;99.90
57664;DHT22;43493;53.098;6.064;2022-07-06T05:33:46;15.60;99.90
57664;DHT22;43493;53.098;6.064;2022-07-06T05:36:12;15.70;99.90
57664;DHT22;43493;53.098;6.064;2022-07-06T05:38:38;15.90;99.90
57664;DHT22;43493;53.098;6.064;2022-07-06T05:41:03;16.20;99.90
57664;DHT22;43493;53.098;6.064;2022-07-06T05:43:29;16.50;99.90
57664;DHT22;43493;53.098;6.064;2022-07-06T05:45:55;16.60;99.90
57664;DHT22;43493;53.098;6.064;2022-07-06T05:48:20;16.60;99.90
57664;DHT22;43493;53.098;6.064;2022-07-06T05:51:04;16.70;99.90
57664;DHT22;43493;53.098;6.064;2022-07-06T05:53:30;16.70;99.90
57664;DHT22;43493;53.098;6.064;2022-07-06T05:55:56;16.60;99.90
57664;DHT22;43493;53.098;6.064;2022-07-06T05:58:22;16.50;99.90
57664;DHT22;43493;53.098;6.064;2022-07-06T06:00:49;16.50;99.90
57664;DHT22;43493;53.098;6.064;2022-07-06T06:03:15;16.50;99.90
57664;DHT22;43493;53.098;6.064;2022-07-06T06:05:41;16.40;99.90
57664;DHT22;43493;53.098;6.064;2022-07-06T06:08:07;16.40;99.90
57664;DHT22;43493;53.098;6.064;2022-07-06T06:10:32;16.40;99.90
57664;DHT22;43493;53.098;6.064;2022-07-06T06:12:58;16.30;99.90
57664;DHT22;43493;53.098;6.064;2022-07-06T06:15:24;16.30;99.90
57664;DHT22;43493;53.098;6.064;2022-07-06T06:17:49;16.30;99.90
57664;DHT22;43493;53.098;6.064;2022-07-06T06:20:15;16.30;99.90
57664;DHT22;43493;53.098;6.064;2022-07-06T06:22:46;16.30;99.90
57664;DHT22;43493;53.098;6.064;2022-07-06T06:25:16;16.40;99.90
57664;DHT22;43493;53.098;6.064;2022-07-06T06:27:42;16.40;99.90
57664;DHT22;43493;53.098;6.064;2022-07-06T06:30:09;16.50;99.90
57664;DHT22;43493;53.098;6.064;2022-07-06T06:32:35;16.50;99.90
57664;DHT22;43493;53.098;6.064;2022-07-06T06:35:01;16.60;99.90
57664;DHT22;43493;53.098;6.064;2022-07-06T06:37:27;16.60;99.90
57664;DHT22;43493;53.098;6.064;2022-07-06T06:39:52;16.70;99.90
57664;DHT22;43493;53.098;6.064;2022-07-06T06:42:18;16.70;99.90
57664;DHT22;43493;53.098;6.064;2022-07-06T06:44:44;16.70;99.90
57664;DHT22;43493;53.098;6.064;2022-07-06T06:47:09;16.80;99.90
57664;DHT22;43493;53.098;6.064;2022-07-06T06:49:35;17.10;99.90
57664;DHT22;43493;53.098;6.064;2022-07-06T06:52:00;18.50;99.90
57664;DHT22;43493;53.098;6.064;2022-07-06T06:54:26;22.10;99.90
57664;DHT22;43493;53.098;6.064;2022-07-06T06:56:52;22.40;83.10
57664;DHT22;43493;53.098;6.064;2022-07-06T06:59:18;23.50;95.20
57664;DHT22;43493;53.098;6.064;2022-07-06T07:01:43;24.30;84.20
57664;DHT22;43493;53.098;6.064;2022-07-06T07:04:09;24.20;73.40
57664;DHT22;43493;53.098;6.064;2022-07-06T07:06:35;23.40;69.40
57664;DHT22;43493;53.098;6.064;2022-07-06T07:09:01;22.60;67.60
57664;DHT22;43493;53.098;6.064;2022-07-06T07:11:26;21.80;68.40
57664;DHT22;43493;53.098;6.064;2022-07-06T07:13:52;21.10;70.50
57664;DHT22;43493;53.098;6.064;2022-07-06T07:16:18;20.90;73.60
57664;DHT22;43493;53.098;6.064;2022-07-06T07:18:43;21.60;76.50
57664;DHT22;43493;53.098;6.064;2022-07-06T07:21:09;22.70;72.40
57664;DHT22;43493;53.098;6.064;2022-07-06T07:23:35;23.70;67.10
57664;DHT22;43493;53.098;6.064;2022-07-06T07:26:01;24.50;61.10
57664;DHT22;43493;53.098;6.064;2022-07-06T07:28:26;25.10;58.20
57664;DHT22;43493;53.098;6.064;2022-07-06T07:30:52;25.60;55.70
57664;DHT22;43493;53.098;6.064;2022-07-06T07:38:10;26.70;49.20
57664;DHT22;43493;53.098;6.064;2022-07-06T07:40:35;27.00;50.20
57664;DHT22;43493;53.098;6.064;2022-07-06T07:43:01;27.00;64.30
57664;DHT22;43493;53.098;6.064;2022-07-06T07:45:27;27.00;48.70
57664;DHT22;43493;53.098;6.064;2022-07-06T07:47:53;27.00;47.30
57664;DHT22;43493;53.098;6.064;2022-07-06T07:50:19;26.70;46.70
57664;DHT22;43493;53.098;6.064;2022-07-06T08:00:04;26.40;66.10
57664;DHT22;43493;53.098;6.064;2022-07-06T08:04:56;26.60;46.30
57664;DHT22;43493;53.098;6.064;2022-07-06T08:07:22;26.60;47.00
57664;DHT22;43493;53.098;6.064;2022-07-06T08:09:48;26.60;46.50
57664;DHT22;43493;53.098;6.064;2022-07-06T08:12:13;26.10;45.60
57664;DHT22;43493;53.098;6.064;2022-07-06T08:14:39;25.30;46.40
57664;DHT22;43493;53.098;6.064;2022-07-06T08:17:05;24.50;47.30
57664;DHT22;43493;53.098;6.064;2022-07-06T08:26:49;23.30;51.60
57664;DHT22;43493;53.098;6.064;2022-07-06T08:29:15;24.10;52.50
57664;DHT22;43493;53.098;6.064;2022-07-06T08:34:07;26.10;48.80
57664;DHT22;43493;53.098;6.064;2022-07-06T08:36:33;26.70;47.50
57664;DHT22;43493;53.098;6.064;2022-07-06T08:46:20;25.80;44.60
57664;DHT22;43493;53.098;6.064;2022-07-06T08:51:13;24.10;48.20
57664;DHT22;43493;53.098;6.064;2022-07-06T08:53:41;24.00;48.80
57664;DHT22;43493;53.098;6.064;2022-07-06T08:56:10;24.30;49.80
57664;DHT22;43493;53.098;6.064;2022-07-06T08:58:36;24.60;49.90
57664;DHT22;43493;53.098;6.064;2022-07-06T09:01:02;24.60;49.30
57664;DHT22;43493;53.098;6.064;2022-07-06T09:03:28;24.30;48.70
57664;DHT22;43493;53.098;6.064;2022-07-06T09:05:59;24.10;48.70
57664;DHT22;43493;53.098;6.064;2022-07-06T09:08:27;23.30;50.00
57664;DHT22;43493;53.098;6.064;2022-07-06T09:10:55;23.20;49.90
57664;DHT22;43493;53.098;6.064;2022-07-06T09:13:20;23.10;51.00
57664;DHT22;43493;53.098;6.064;2022-07-06T09:15:46;23.20;51.40
57664;DHT22;43493;53.098;6.064;2022-07-06T09:18:12;23.20;51.20
57664;DHT22;43493;53.098;6.064;2022-07-06T09:20:37;23.10;53.80
57664;DHT22;43493;53.098;6.064;2022-07-06T09:23:06;22.90;52.00
57664;DHT22;43493;53.098;6.064;2022-07-06T09:25:33;22.70;52.20
57664;DHT22;43493;53.098;6.064;2022-07-06T09:28:00;22.50;52.60
57664;DHT22;43493;53.098;6.064;2022-07-06T09:30:27;22.30;53.00
57664;DHT22;43493;53.098;6.064;2022-07-06T09:32:56;22.20;53.50
57664;DHT22;43493;53.098;6.064;2022-07-06T09:35:36;22.20;54.10
57664;DHT22;43493;53.098;6.064;2022-07-06T09:38:06;22.10;55.10
57664;DHT22;43493;53.098;6.064;2022-07-06T09:40:35;22.10;55.10
57664;DHT22;43493;53.098;6.064;2022-07-06T09:43:27;22.00;55.80
57664;DHT22;43493;53.098;6.064;2022-07-06T09:45:55;21.90;57.30
57664;DHT22;43493;53.098;6.064;2022-07-06T09:48:25;21.90;58.00
57664;DHT22;43493;53.098;6.064;2022-07-06T09:50:57;22.10;57.70
57664;DHT22;43493;53.098;6.064;2022-07-06T09:53:26;22.30;57.50
57664;DHT22;43493;53.098;6.064;2022-07-06T09:55:54;22.40;57.60
57664;DHT22;43493;53.098;6.064;2022-07-06T09:58:22;22.60;57.30
57664;DHT22;43493;53.098;6.064;2022-07-06T10:00:49;22.60;57.50
57664;DHT22;43493;53.098;6.064;2022-07-06T10:03:16;22.70;56.60
57664;DHT22;43493;53.098;6.064;2022-07-06T10:05:44;22.70;55.70
57664;DHT22;43493;53.098;6.064;2022-07-06T10:08:13;22.70;55.90
57664;DHT22;43493;53.098;6.064;2022-07-06T10:10:40;22.70;55.80
57664;DHT22;43493;53.098;6.064;2022-07-06T10:13:07;22.60;55.40
57664;DHT22;43493;53.098;6.064;2022-07-06T10:15:34;22.60;55.10
57664;DHT22;43493;53.098;6.064;2022-07-06T10:18:02;22.50;54.90
57664;DHT22;43493;53.098;6.064;2022-07-06T10:20:29;22.60;55.10
57664;DHT22;43493;53.098;6.064;2022-07-06T10:23:00;22.60;55.30
57664;DHT22;43493;53.098;6.064;2022-07-06T10:25:26;22.60;55.40
57664;DHT22;43493;53.098;6.064;2022-07-06T10:27:53;22.60;55.20
57664;DHT22;43493;53.098;6.064;2022-07-06T10:30:20;22.60;55.00
57664;DHT22;43493;53.098;6.064;2022-07-06T10:32:48;22.60;55.10
57664;DHT22;43493;53.098;6.064;2022-07-06T10:35:15;22.50;54.10
57664;DHT22;43493;53.098;6.064;2022-07-06T10:37:41;22.40;53.80
57664;DHT22;43493;53.098;6.064;2022-07-06T10:40:07;22.40;53.90
57664;DHT22;43493;53.098;6.064;2022-07-06T10:43:02;22.40;54.30
57664;DHT22;43493;53.098;6.064;2022-07-06T10:50:55;22.10;54.20
57664;DHT22;43493;53.098;6.064;2022-07-06T10:53:26;22.00;54.70
57664;DHT22;43493;53.098;6.064;2022-07-06T10:55:54;21.90;54.60
57664;DHT22;43493;53.098;6.064;2022-07-06T10:58:47;21.90;55.50
57664;DHT22;43493;53.098;6.064;2022-07-06T11:01:14;22.00;56.30
57664;DHT22;43493;53.098;6.064;2022-07-06T11:03:45;22.00;55.40
57664;DHT22;43493;53.098;6.064;2022-07-06T11:06:22;22.10;55.00
57664;DHT22;43493;53.098;6.064;2022-07-06T11:08:53;22.10;55.10
57664;DHT22;43493;53.098;6.064;2022-07-06T11:14:13;21.90;56.90
57664;DHT22;43493;53.098;6.064;2022-07-06T11:19:18;21.90;56.60
57664;DHT22;43493;53.098;6.064;2022-07-06T11:21:47;22.00;57.60
57664;DHT22;43493;53.098;6.064;2022-07-06T11:24:19;22.20;57.10
57664;DHT22;43493;53.098;6.064;2022-07-06T11:26:47;22.20;56.60
57664;DHT22;43493;53.098;6.064;2022-07-06T11:29:14;22.20;55.80
57664;DHT22;43493;53.098;6.064;2022-07-06T11:31:42;22.30;56.10
57664;DHT22;43493;53.098;6.064;2022-07-06T11:34:09;22.20;56.20
57664;DHT22;43493;53.098;6.064;2022-07-06T11:36:36;22.20;56.90
57664;DHT22;43493;53.098;6.064;2022-07-06T11:39:03;22.30;56.80
57664;DHT22;43493;53.098;6.064;2022-07-06T11:41:30;22.30;56.40
57664;DHT22;43493;53.098;6.064;2022-07-06T11:43:56;22.40;57.10
57664;DHT22;43493;53.098;6.064;2022-07-06T11:46:27;22.50;56.70
57664;DHT22;43493;53.098;6.064;2022-07-06T11:48:55;22.50;55.70
57664;DHT22;43493;53.098;6.064;2022-07-06T11:51:23;22.40;56.10
57664;DHT22;43493;53.098;6.064;2022-07-06T11:53:54;22.30;55.90
57664;DHT22;43493;53.098;6.064;2022-07-06T11:56:22;22.30;56.00
57664;DHT22;43493;53.098;6.064;2022-07-06T11:58:51;22.10;56.30
57664;DHT22;43493;53.098;6.064;2022-07-06T12:01:18;22.10;57.00
57664;DHT22;43493;53.098;6.064;2022-07-06T12:03:44;22.00;57.20
57664;DHT22;43493;53.098;6.064;2022-07-06T12:06:17;22.10;57.10
57664;DHT22;43493;53.098;6.064;2022-07-06T12:08:49;22.30;57.10
57664;DHT22;43493;53.098;6.064;2022-07-06T12:11:20;22.40;56.50
57664;DHT22;43493;53.098;6.064;2022-07-06T12:13:47;22.60;56.00
57664;DHT22;43493;53.098;6.064;2022-07-06T12:16:13;22.70;54.70
57664;DHT22;43493;53.098;6.064;2022-07-06T12:18:42;22.80;54.20
57664;DHT22;43493;53.098;6.064;2022-07-06T12:21:10;22.90;54.20
57664;DHT22;43493;53.098;6.064;2022-07-06T12:23:46;23.00;54.30
57664;DHT22;43493;53.098;6.064;2022-07-06T12:26:16;23.10;53.70
57664;DHT22;43493;53.098;6.064;2022-07-06T12:28:44;23.10;53.90
57664;DHT22;43493;53.098;6.064;2022-07-06T12:31:11;23.10;54.30
57664;DHT22;43493;53.098;6.064;2022-07-06T12:33:37;23.00;53.60
57664;DHT22;43493;53.098;6.064;2022-07-06T12:36:14;23.00;54.10
57664;DHT22;43493;53.098;6.064;2022-07-06T12:38:48;23.00;53.80
57664;DHT22;43493;53.098;6.064;2022-07-06T12:41:31;23.00;54.00
57664;DHT22;43493;53.098;6.064;2022-07-06T12:44:02;23.00;54.50
57664;DHT22;43493;53.098;6.064;2022-07-06T12:46:42;22.90;54.70
57664;DHT22;43493;53.098;6.064;2022-07-06T12:54:22;22.70;53.60
57664;DHT22;43493;53.098;6.064;2022-07-06T12:57:05;22.50;53.90
57664;DHT22;43493;53.098;6.064;2022-07-06T12:59:42;22.40;53.80
57664;DHT22;43493;53.098;6.064;2022-07-06T13:02:10;22.30;54.10
57664;DHT22;43493;53.098;6.064;2022-07-06T13:04:41;22.30;54.70
57664;DHT22;43493;53.098;6.064;2022-07-06T13:07:17;22.30;54.70
57664;DHT22;43493;53.098;6.064;2022-07-06T13:09:43;22.30;54.50
57664;DHT22;43493;53.098;6.064;2022-07-06T13:12:09;22.40;54.30
57664;DHT22;43493;53.098;6.064;2022-07-06T13:14:35;22.40;54.00
57664;DHT22;43493;53.098;6.064;2022-07-06T13:17:00;22.40;54.40
57664;DHT22;43493;53.098;6.064;2022-07-06T13:19:26;22.40;55.00
57664;DHT22;43493;53.098;6.064;2022-07-06T13:21:52;22.30;55.50
57664;DHT22;43493;53.098;6.064;2022-07-06T13:24:17;22.30;55.60
57664;DHT22;43493;53.098;6.064;2022-07-06T13:26:43;22.20;55.40
57664;DHT22;43493;53.098;6.064;2022-07-06T13:29:10;22.20;55.20
57664;DHT22;43493;53.098;6.064;2022-07-06T13:31:36;22.20;55.50
57664;DHT22;43493;53.098;6.064;2022-07-06T13:34:02;22.10;55.50
57664;DHT22;43493;53.098;6.064;2022-07-06T13:36:28;22.00;55.50
57664;DHT22;43493;53.098;6.064;2022-07-06T13:38:53;21.80;56.30
57664;DHT22;43493;53.098;6.064;2022-07-06T13:41:19;21.80;56.50
57664;DHT22;43493;53.098;6.064;2022-07-06T13:43:45;21.70;56.90
57664;DHT22;43493;53.098;6.064;2022-07-06T13:46:11;21.50;57.50
57664;DHT22;43493;53.098;6.064;2022-07-06T13:48:36;21.40;58.40
57664;DHT22;43493;53.098;6.064;2022-07-06T13:51:02;21.40;59.30
57664;DHT22;43493;53.098;6.064;2022-07-06T13:53:28;21.30;60.00
57664;DHT22;43493;53.098;6.064;2022-07-06T13:55:55;21.30;60.40
57664;DHT22;43493;53.098;6.064;2022-07-06T13:58:21;21.30;60.90
57664;DHT22;43493;53.098;6.064;2022-07-06T14:00:47;21.20;61.50
57664;DHT22;43493;53.098;6.064;2022-07-06T14:03:12;21.20;62.20
57664;DHT22;43493;53.098;6.064;2022-07-06T14:05:38;21.20;62.20
57664;DHT22;43493;53.098;6.064;2022-07-06T14:08:04;21.10;62.60
57664;DHT22;43493;53.098;6.064;2022-07-06T14:10:30;21.10;62.20
57664;DHT22;43493;53.098;6.064;2022-07-06T14:12:56;21.00;62.80
57664;DHT22;43493;53.098;6.064;2022-07-06T14:15:21;20.90;62.60
57664;DHT22;43493;53.098;6.064;2022-07-06T14:17:47;20.80;62.80
57664;DHT22;43493;53.098;6.064;2022-07-06T14:20:14;20.70;64.50
57664;DHT22;43493;53.098;6.064;2022-07-06T14:22:40;20.50;68.60
57664;DHT22;43493;53.098;6.064;2022-07-06T14:25:06;20.40;71.80
57664;DHT22;43493;53.098;6.064;2022-07-06T14:27:33;20.20;75.10
57664;DHT22;43493;53.098;6.064;2022-07-06T14:29:59;20.10;76.20
57664;DHT22;43493;53.098;6.064;2022-07-06T14:32:25;20.10;79.60
57664;DHT22;43493;53.098;6.064;2022-07-06T14:34:50;20.10;82.10
57664;DHT22;43493;53.098;6.064;2022-07-06T14:37:16;20.10;80.90
57664;DHT22;43493;53.098;6.064;2022-07-06T14:39:42;20.10;80.40
57664;DHT22;43493;53.098;6.064;2022-07-06T14:42:10;20.10;79.80
57664;DHT22;43493;53.098;6.064;2022-07-06T14:44:36;20.20;79.50
57664;DHT22;43493;53.098;6.064;2022-07-06T14:47:02;20.20;78.30
57664;DHT22;43493;53.098;6.064;2022-07-06T14:49:29;20.20;77.40
57664;DHT22;43493;53.098;6.064;2022-07-06T14:51:54;20.20;78.20
57664;DHT22;43493;53.098;6.064;2022-07-06T14:54:22;20.20;84.00
57664;DHT22;43493;53.098;6.064;2022-07-06T14:56:48;20.20;87.80
57664;DHT22;43493;53.098;6.064;2022-07-06T14:59:14;20.10;90.60
57664;DHT22;43493;53.098;6.064;2022-07-06T15:01:39;20.10;92.00
57664;DHT22;43493;53.098;6.064;2022-07-06T15:04:05;20.10;92.90
57664;DHT22;43493;53.098;6.064;2022-07-06T15:06:31;20.10;93.80
57664;DHT22;43493;53.098;6.064;2022-07-06T15:08:56;20.00;95.60
57664;DHT22;43493;53.098;6.064;2022-07-06T15:11:22;20.00;98.70
57664;DHT22;43493;53.098;6.064;2022-07-06T15:13:48;19.80;99.90
57664;DHT22;43493;53.098;6.064;2022-07-06T15:16:14;19.60;99.90
57664;DHT22;43493;53.098;6.064;2022-07-06T15:18:42;19.40;99.90
57664;DHT22;43493;53.098;6.064;2022-07-06T15:21:08;19.20;99.90
57664;DHT22;43493;53.098;6.064;2022-07-06T15:23:35;19.20;99.90
57664;DHT22;43493;53.098;6.064;2022-07-06T15:26:02;19.10;99.90
57664;DHT22;43493;53.098;6.064;2022-07-06T15:28:28;19.10;99.90
57664;DHT22;43493;53.098;6.064;2022-07-06T15:30:54;19.10;99.90
57664;DHT22;43493;53.098;6.064;2022-07-06T15:33:21;19.10;99.90
57664;DHT22;43493;53.098;6.064;2022-07-06T15:35:47;19.10;99.90
57664;DHT22;43493;53.098;6.064;2022-07-06T15:38:13;19.10;99.90
57664;DHT22;43493;53.098;6.064;2022-07-06T15:40:48;19.10;99.90
57664;DHT22;43493;53.098;6.064;2022-07-06T15:43:25;19.10;99.90
57664;DHT22;43493;53.098;6.064;2022-07-06T15:45:55;19.10;99.90
57664;DHT22;43493;53.098;6.064;2022-07-06T15:48:21;19.10;99.90
57664;DHT22;43493;53.098;6.064;2022-07-06T15:50:47;19.10;99.90
57664;DHT22;43493;53.098;6.064;2022-07-06T15:53:13;19.10;99.90
57664;DHT22;43493;53.098;6.064;2022-07-06T15:55:39;19.10;99.90
57664;DHT22;43493;53.098;6.064;2022-07-06T15:58:04;19.10;99.90
57664;DHT22;43493;53.098;6.064;2022-07-06T16:00:30;19.10;99.90
57664;DHT22;43493;53.098;6.064;2022-07-06T16:02:56;19.10;99.90
57664;DHT22;43493;53.098;6.064;2022-07-06T16:05:22;19.10;99.90
57664;DHT22;43493;53.098;6.064;2022-07-06T16:07:49;19.00;99.90
57664;DHT22;43493;53.098;6.064;2022-07-06T16:10:15;19.00;99.90
57664;DHT22;43493;53.098;6.064;2022-07-06T16:12:41;18.90;99.90
57664;DHT22;43493;53.098;6.064;2022-07-06T16:15:07;18.90;99.90
57664;DHT22;43493;53.098;6.064;2022-07-06T16:17:34;18.90;99.90
57664;DHT22;43493;53.098;6.064;2022-07-06T16:19:59;18.90;99.90